Time;durP1;ratioP1;P1;durP2;ratioP2;P2;SDS_P1;SDS_P2;PMS_P1;PMS_P2;Temp;Humidity;BMP_temperature;BMP_pressure;BME280_temperature;BME280_humidity;BME280_pressure;Samples;Min_cycle;Max_cycle;Signal;HPM_P1;HPM_P2
2023/07/16 00:01:47;;;;;;;3.50;3.20;;;;;;;22.84;84.26;99739.97;4965345;28;20210;-83
2023/07/16 00:04:13;;;;;;;4.00;3.70;;;;;;;22.83;84.66;99734.78;4966347;28;20669;-82
2023/07/16 00:06:40;;;;;;;3.40;3.20;;;;;;;22.80;84.98;99733.22;4965757;28;20211;-81
2023/07/16 00:09:08;;;;;;;3.60;3.40;;;;;;;22.81;84.78;99732.22;4963819;28;20204;-82
2023/07/16 00:11:34;;;;;;;3.70;3.50;;;;;;;22.73;85.31;99746.16;4963663;28;20697;-83
2023/07/16 00:14:01;;;;;;;3.23;2.93;;;;;;;22.78;85.25;99754.63;4966265;28;20216;-81
2023/07/16 00:16:28;;;;;;;3.27;3.07;;;;;;;22.50;86.91;99720.59;4966075;28;20212;-81
2023/07/16 00:18:54;;;;;;;3.60;3.27;;;;;;;22.36;86.67;99727.00;4958709;28;20223;-81
2023/07/16 00:21:21;;;;;;;3.20;3.00;;;;;;;22.48;85.99;99726.03;4966987;28;20907;-82
2023/07/16 00:23:47;;;;;;;3.30;3.10;;;;;;;22.45;86.05;99734.22;4957455;28;20213;-82
2023/07/16 00:26:15;;;;;;;3.20;2.97;;;;;;;22.56;85.38;99731.56;4965783;28;20207;-81
2023/07/16 00:28:42;;;;;;;3.07;2.90;;;;;;;22.66;85.28;99723.69;4964236;28;20658;-82
2023/07/16 00:31:08;;;;;;;3.20;2.90;;;;;;;22.71;85.55;99737.44;4966061;28;20250;-82
2023/07/16 00:33:35;;;;;;;3.50;3.23;;;;;;;22.76;85.16;99755.72;4965982;28;20212;-82
2023/07/16 00:36:02;;;;;;;3.23;3.03;;;;;;;22.80;84.37;99767.81;4954334;28;20212;-82
2023/07/16 00:38:28;;;;;;;3.83;3.43;;;;;;;22.83;84.82;99756.06;4953176;28;20223;-81
2023/07/16 00:40:55;;;;;;;3.73;3.53;;;;;;;22.84;84.40;99736.47;4961740;28;20306;-82
2023/07/16 00:43:22;;;;;;;3.30;3.00;;;;;;;22.83;84.63;99685.03;4967885;28;20207;-82
2023/07/16 00:45:50;;;;;;;3.33;3.03;;;;;;;22.79;84.60;99679.16;4963314;28;20207;-81
2023/07/16 00:48:17;;;;;;;3.40;3.10;;;;;;;22.82;84.62;99671.91;4961183;28;20221;-81
2023/07/16 00:50:43;;;;;;;3.30;3.10;;;;;;;22.52;86.85;99678.75;4961442;28;20971;-82
2023/07/16 00:53:11;;;;;;;3.03;2.70;;;;;;;22.19;89.21;99649.38;4957620;28;20204;-82
2023/07/16 00:55:38;;;;;;;3.30;3.00;;;;;;;21.96;90.10;99642.38;4965132;28;20212;-82
2023/07/16 00:58:06;;;;;;;3.07;2.83;;;;;;;22.16;89.38;99651.44;4953760;28;20220;-82
2023/07/16 01:00:35;;;;;;;3.53;3.23;;;;;;;22.27;88.62;99678.06;4961260;28;20315;-82
2023/07/16 01:03:02;;;;;;;3.60;3.40;;;;;;;22.18;86.21;99738.09;4965348;28;20215;-82
2023/07/16 01:05:35;;;;;;;2.93;2.73;;;;;;;22.06;85.98;99760.31;4965250;28;20720;-82
2023/07/16 01:08:07;;;;;;;2.90;2.70;;;;;;;21.59;87.54;99741.75;4956443;28;20207;-81
2023/07/16 01:10:34;;;;;;;2.90;2.70;;;;;;;21.64;87.64;99729.94;4957393;28;20236;-80
2023/07/16 01:13:01;;;;;;;2.63;2.43;;;;;;;21.54;87.88;99741.25;4968818;28;20728;-81
2023/07/16 01:15:28;;;;;;;2.40;2.20;;;;;;;21.30;87.77;99727.97;4961646;28;20826;-82
2023/07/16 01:17:56;;;;;;;2.33;2.20;;;;;;;21.43;86.41;99749.19;4963698;28;20717;-82
2023/07/16 01:20:22;;;;;;;2.10;1.90;;;;;;;21.62;85.94;99772.53;4965187;28;20316;-81
2023/07/16 01:23:09;;;;;;;2.17;1.73;;;;;;;21.76;85.15;99772.34;4962586;28;20601;-81
2023/07/16 01:25:58;;;;;;;2.27;2.00;;;;;;;21.49;84.81;99835.53;4961281;28;20232;-81
2023/07/16 01:28:45;;;;;;;2.07;1.70;;;;;;;21.09;87.29;99795.94;4956349;28;20624;-81
2023/07/16 01:31:13;;;;;;;4.33;1.73;;;;;;;21.20;87.56;99785.38;4951043;28;20645;-82
2023/07/16 01:33:43;;;;;;;2.10;1.80;;;;;;;21.15;88.40;99772.47;4965677;28;20621;-82
2023/07/16 01:36:10;;;;;;;2.10;1.90;;;;;;;20.78;92.83;99715.94;4965181;28;20659;-81
2023/07/16 01:38:37;;;;;;;4.53;2.20;;;;;;;20.04;100.00;99620.50;4976034;28;20621;-82
2023/07/16 01:41:03;;;;;;;6.87;2.70;;;;;;;19.64;100.00;99530.59;4976855;28;20881;-81
2023/07/16 01:43:30;;;;;;;9.37;3.23;;;;;;;19.65;100.00;99480.19;4978703;28;20211;-83
2023/07/16 01:45:56;;;;;;;8.13;3.67;;;;;;;19.11;100.00;99490.22;4969725;28;20220;-82
2023/07/16 01:48:31;;;;;;;4.50;2.83;;;;;;;18.59;100.00;99495.47;4976420;28;20208;-83
2023/07/16 01:50:57;;;;;;;3.13;2.83;;;;;;;18.83;100.00;99508.88;4977231;28;20227;-83
2023/07/16 01:53:24;;;;;;;4.37;2.37;;;;;;;18.94;100.00;99563.66;4976345;28;20212;-84
2023/07/16 01:55:50;;;;;;;2.97;2.53;;;;;;;18.70;100.00;99571.41;4975192;28;20208;-83
2023/07/16 01:58:17;;;;;;;3.20;2.67;;;;;;;18.88;100.00;99577.28;4975183;28;20220;-82
2023/07/16 02:00:44;;;;;;;4.10;2.57;;;;;;;18.90;100.00;99593.91;4970859;28;20233;-83
2023/07/16 02:03:10;;;;;;;2.47;2.10;;;;;;;19.20;100.00;99603.34;4984750;28;20673;-83
2023/07/16 02:05:38;;;;;;;2.93;1.90;;;;;;;19.45;100.00;99608.66;4977380;28;20397;-82
2023/07/16 02:08:05;;;;;;;3.93;2.07;;;;;;;19.67;100.00;99643.41;4976459;28;20224;-83
2023/07/16 02:10:31;;;;;;;4.37;2.17;;;;;;;19.84;100.00;99691.63;4977179;28;20903;-83
2023/07/16 02:12:58;;;;;;;3.70;2.30;;;;;;;19.98;100.00;99726.88;4969536;28;20661;-83
2023/07/16 02:15:24;;;;;;;2.80;2.10;;;;;;;20.07;100.00;99747.44;4977181;28;20201;-82
2023/07/16 02:17:51;;;;;;;2.30;2.10;;;;;;;20.17;100.00;99752.94;4976908;28;20216;-83
2023/07/16 02:20:17;;;;;;;4.63;1.90;;;;;;;20.22;100.00;99764.09;4975123;28;20235;-83
2023/07/16 02:22:45;;;;;;;10.63;1.80;;;;;;;20.22;100.00;99794.06;4976261;28;20209;-82
2023/07/16 02:25:12;;;;;;;2.53;1.90;;;;;;;20.27;100.00;99803.50;4975856;28;20222;-83
2023/07/16 02:27:39;;;;;;;3.97;2.00;;;;;;;20.32;100.00;99809.34;4975860;28;20605;-83
2023/07/16 02:30:06;;;;;;;1.60;1.50;;;;;;;20.35;100.00;99812.63;4971217;28;20223;-83
2023/07/16 02:32:33;;;;;;;2.10;2.00;;;;;;;20.39;100.00;99827.34;4979981;28;20225;-81
2023/07/16 02:34:59;;;;;;;3.20;2.00;;;;;;;20.41;100.00;99833.38;4971431;28;20219;-83
2023/07/16 02:37:26;;;;;;;2.93;2.00;;;;;;;20.41;100.00;99844.00;4979383;28;20217;-82
2023/07/16 02:39:54;;;;;;;2.10;1.93;;;;;;;20.42;100.00;99843.06;4979439;28;20713;-82
2023/07/16 02:42:20;;;;;;;2.10;1.80;;;;;;;20.37;100.00;99846.97;4977002;28;20292;-83
2023/07/16 02:44:47;;;;;;;3.77;1.77;;;;;;;20.36;100.00;99859.38;4976758;28;20208;-82
2023/07/16 02:47:13;;;;;;;1.77;1.53;;;;;;;20.41;100.00;99869.66;4977169;28;20213;-82
2023/07/16 02:49:40;;;;;;;2.13;1.63;;;;;;;20.42;99.58;99871.38;4977890;28;20224;-83
2023/07/16 02:52:07;;;;;;;2.37;1.83;;;;;;;20.41;99.80;99877.63;4976770;28;20228;-82
2023/07/16 02:54:34;;;;;;;3.67;1.90;;;;;;;20.38;99.46;99883.16;4976191;28;20218;-82
2023/07/16 02:57:02;;;;;;;3.07;1.80;;;;;;;20.25;98.02;99877.81;4978354;28;20631;-82
2023/07/16 02:59:28;;;;;;;2.43;1.67;;;;;;;20.22;98.39;99884.19;4974439;28;20213;-82
2023/07/16 03:01:55;;;;;;;1.70;1.60;;;;;;;20.19;97.74;99889.69;4962666;28;20219;-82
2023/07/16 03:04:22;;;;;;;2.70;1.77;;;;;;;20.08;96.87;99907.25;4970159;28;20216;-82
2023/07/16 03:06:48;;;;;;;2.57;1.80;;;;;;;20.20;97.13;99904.66;4966778;28;20208;-82
2023/07/16 03:09:15;;;;;;;2.70;2.10;;;;;;;20.06;96.64;99922.41;4972943;28;20216;-82
2023/07/16 03:11:41;;;;;;;2.43;2.00;;;;;;;20.14;97.26;99918.31;4966186;28;20260;-82
2023/07/16 03:14:09;;;;;;;1.50;1.40;;;;;;;20.16;97.78;99903.16;4982711;28;20208;-81
2023/07/16 03:16:35;;;;;;;2.67;1.80;;;;;;;20.16;97.61;99913.75;4978797;28;20212;-81
2023/07/16 03:19:02;;;;;;;2.03;1.83;;;;;;;20.16;97.12;99924.34;4976305;28;20217;-80
2023/07/16 03:21:29;;;;;;;1.83;1.70;;;;;;;20.15;97.49;99929.75;4972318;28;20708;-81
2023/07/16 03:23:55;;;;;;;2.80;2.13;;;;;;;20.11;97.48;99923.81;4968029;28;20208;-82
2023/07/16 03:26:22;;;;;;;4.20;1.87;;;;;;;20.08;96.76;99931.97;4966780;28;20669;-81
2023/07/16 03:28:48;;;;;;;1.70;1.60;;;;;;;20.07;95.67;99953.28;4968066;28;20212;-83
2023/07/16 03:31:16;;;;;;;2.50;1.77;;;;;;;20.03;95.83;99960.56;4969991;28;20243;-82
2023/07/16 03:33:42;;;;;;;2.50;1.57;;;;;;;19.94;95.15;99971.75;4970626;28;20239;-83
2023/07/16 03:36:09;;;;;;;1.97;1.83;;;;;;;19.93;94.85;99988.63;4959310;28;20224;-82
2023/07/16 03:38:35;;;;;;;5.83;1.90;;;;;;;19.82;94.03;99994.59;4966264;28;20212;-81
2023/07/16 03:41:02;;;;;;;2.90;1.60;;;;;;;19.80;93.13;100007.09;4968436;28;20225;-81
2023/07/16 03:43:28;;;;;;;4.17;1.77;;;;;;;19.84;93.01;100012.13;4965266;28;20576;-82
2023/07/16 03:45:55;;;;;;;3.03;1.60;;;;;;;19.88;92.81;100023.38;4967911;28;20216;-82
2023/07/16 03:48:23;;;;;;;2.63;1.70;;;;;;;19.92;91.94;100034.59;4969865;28;20219;-82
2023/07/16 03:50:49;;;;;;;2.87;1.97;;;;;;;19.75;91.58;100041.81;4970386;28;20224;-83
2023/07/16 03:53:16;;;;;;;1.90;1.77;;;;;;;19.70;92.44;100040.38;4956646;28;20248;-82
2023/07/16 03:55:42;;;;;;;6.37;1.70;;;;;;;19.67;92.66;100032.66;4966244;28;20686;-80
2023/07/16 03:58:09;;;;;;;2.90;1.47;;;;;;;19.67;92.74;100028.19;4966132;28;20209;-82
2023/07/16 04:00:35;;;;;;;1.83;1.60;;;;;;;19.74;92.92;100024.25;4965886;28;20283;-81
2023/07/16 04:03:02;;;;;;;1.87;1.77;;;;;;;19.74;92.65;100032.19;4965744;28;20575;-81
2023/07/16 04:05:29;;;;;;;3.57;1.60;;;;;;;19.74;91.69;100045.44;4962822;28;20230;-81
2023/07/16 04:07:56;;;;;;;2.57;1.50;;;;;;;19.76;91.28;100054.13;4967787;28;20204;-83
2023/07/16 04:10:22;;;;;;;4.00;1.83;;;;;;;19.76;91.36;100061.22;4962658;28;20267;-81
2023/07/16 04:12:49;;;;;;;3.67;1.70;;;;;;;19.71;90.90;100060.63;4961194;28;20736;-80
2023/07/16 04:15:16;;;;;;;2.53;1.83;;;;;;;19.61;91.90;100063.00;4965345;28;20217;-81
2023/07/16 04:17:42;;;;;;;3.33;2.13;;;;;;;19.67;91.61;100062.63;4964569;28;20576;-82
2023/07/16 04:20:09;;;;;;;3.30;1.53;;;;;;;19.65;91.57;100067.16;4964287;28;20225;-80
2023/07/16 04:22:37;;;;;;;2.70;1.80;;;;;;;19.48;92.02;100073.50;4964173;28;20586;-81
2023/07/16 04:25:04;;;;;;;3.03;2.13;;;;;;;19.53;92.34;100062.63;4965611;28;20678;-82
2023/07/16 04:27:31;;;;;;;2.00;1.80;;;;;;;19.60;92.61;100054.22;4962990;28;20209;-82
2023/07/16 04:29:57;;;;;;;4.93;2.00;;;;;;;19.40;93.36;100047.50;4964577;28;20235;-81
2023/07/16 04:32:24;;;;;;;2.27;1.80;;;;;;;19.39;93.71;100040.50;4965483;28;20733;-81
2023/07/16 04:34:50;;;;;;;4.10;2.30;;;;;;;19.54;93.84;100043.97;4964614;28;20208;-83
2023/07/16 04:37:17;;;;;;;2.97;1.50;;;;;;;19.58;93.59;100048.16;4963595;28;20271;-81
2023/07/16 04:39:45;;;;;;;2.23;1.90;;;;;;;19.51;92.87;100057.44;4964418;28;20228;-82
2023/07/16 04:42:11;;;;;;;3.23;2.00;;;;;;;19.31;94.55;100044.59;4966696;28;20217;-82
2023/07/16 04:44:38;;;;;;;1.80;1.70;;;;;;;19.22;95.31;100040.69;4969372;28;20227;-82
2023/07/16 04:47:05;;;;;;;3.10;1.60;;;;;;;19.27;95.71;100017.47;4965267;28;20212;-81
2023/07/16 04:49:32;;;;;;;1.80;1.50;;;;;;;19.39;96.61;100007.91;4967508;28;20210;-82
2023/07/16 04:51:59;;;;;;;2.67;1.50;;;;;;;19.41;96.54;100006.84;4959078;28;20212;-81
2023/07/16 04:54:25;;;;;;;1.77;1.67;;;;;;;19.53;96.67;100013.19;4960654;28;20698;-80
2023/07/16 04:56:53;;;;;;;2.67;2.00;;;;;;;19.58;95.90;100023.47;4960705;28;20213;-81
2023/07/16 04:59:20;;;;;;;2.67;1.63;;;;;;;19.62;96.20;100030.28;4956283;28;20596;-81
2023/07/16 05:01:46;;;;;;;3.20;2.07;;;;;;;19.61;96.17;100028.59;4971039;28;20216;-81
2023/07/16 05:04:13;;;;;;;2.17;1.80;;;;;;;19.68;95.75;100039.63;4967400;28;20229;-81
2023/07/16 05:06:39;;;;;;;3.10;2.60;;;;;;;19.67;95.58;100043.25;4969239;28;20662;-81
2023/07/16 05:09:05;;;;;;;2.13;1.67;;;;;;;19.70;95.57;100045.69;4965198;28;20208;-82
2023/07/16 05:11:33;;;;;;;5.53;1.90;;;;;;;19.82;95.60;100061.69;4970643;28;20227;-82
2023/07/16 05:14:01;;;;;;;1.50;1.40;;;;;;;19.74;94.80;100066.63;4963821;28;20235;-82
2023/07/16 05:16:27;;;;;;;3.77;1.90;;;;;;;19.83;94.65;100068.66;4967543;28;20211;-79
2023/07/16 05:18:53;;;;;;;3.07;1.90;;;;;;;19.93;94.69;100076.03;4959736;28;20638;-81
2023/07/16 05:21:20;;;;;;;2.23;2.03;;;;;;;19.91;94.78;100078.78;4964276;28;20260;-81
2023/07/16 05:23:46;;;;;;;1.87;1.70;;;;;;;19.95;95.23;100072.34;4963776;28;20200;-82
2023/07/16 05:26:13;;;;;;;3.03;2.00;;;;;;;19.93;96.18;100063.63;4966792;28;20215;-81
2023/07/16 05:28:39;;;;;;;2.97;1.93;;;;;;;20.02;95.55;100065.72;4966824;28;20208;-81
2023/07/16 05:31:07;;;;;;;2.27;1.50;;;;;;;20.08;95.12;100076.84;4957530;28;20699;-81
2023/07/16 05:33:34;;;;;;;2.73;1.83;;;;;;;20.06;93.93;100100.81;4955451;28;21050;-81
2023/07/16 05:36:00;;;;;;;3.57;1.80;;;;;;;20.16;94.61;100096.63;4956363;28;20217;-81
2023/07/16 05:38:27;;;;;;;3.90;2.13;;;;;;;20.27;94.39;100100.38;4970611;28;20204;-80
2023/07/16 05:40:53;;;;;;;2.90;1.90;;;;;;;20.03;95.26;100090.41;4979093;28;20239;-82
2023/07/16 05:43:20;;;;;;;2.43;2.20;;;;;;;20.12;95.18;100091.59;4963013;28;20657;-82
2023/07/16 05:45:46;;;;;;;1.70;1.60;;;;;;;19.70;96.55;100077.44;4964122;28;20212;-82
2023/07/16 05:48:14;;;;;;;2.47;2.07;;;;;;;19.87;97.70;100058.72;4969856;28;20210;-82
2023/07/16 05:50:40;;;;;;;3.50;2.10;;;;;;;19.83;97.50;100050.13;4971793;28;20235;-81
2023/07/16 05:53:07;;;;;;;4.30;1.90;;;;;;;20.04;97.25;100055.03;4969893;28;20224;-79
2023/07/16 05:55:33;;;;;;;1.97;1.83;;;;;;;20.12;96.14;100079.22;4965283;28;20196;-80
2023/07/16 05:58:00;;;;;;;3.07;1.93;;;;;;;20.17;94.93;100110.72;4963409;28;20208;-79
2023/07/16 06:00:26;;;;;;;2.60;1.70;;;;;;;20.30;94.10;100121.41;4967650;28;20225;-81
2023/07/16 06:02:53;;;;;;;2.37;2.00;;;;;;;20.33;93.41;100148.53;4976056;28;20211;-80
2023/07/16 06:05:21;;;;;;;2.60;2.10;;;;;;;20.20;91.81;100177.63;4970987;28;20205;-80
2023/07/16 06:07:47;;;;;;;1.83;1.73;;;;;;;20.34;92.29;100175.91;4971145;28;20623;-79
2023/07/16 06:10:14;;;;;;;6.37;2.20;;;;;;;20.34;91.58;100194.47;4969021;28;20227;-80
2023/07/16 06:12:40;;;;;;;2.50;2.20;;;;;;;20.40;90.65;100210.81;4967161;28;20252;-80
2023/07/16 06:15:08;;;;;;;2.00;1.80;;;;;;;20.32;89.54;100234.31;4966714;28;20201;-80
2023/07/16 06:17:34;;;;;;;2.83;1.90;;;;;;;20.23;88.85;100243.69;4963355;28;20531;-80
2023/07/16 06:20:01;;;;;;;2.93;2.20;;;;;;;20.27;89.76;100247.00;4970361;28;20224;-80
2023/07/16 06:22:28;;;;;;;3.53;2.13;;;;;;;20.33;89.44;100243.97;4966464;28;20243;-80
2023/07/16 06:24:55;;;;;;;2.83;2.30;;;;;;;20.34;88.80;100258.09;4966325;28;20208;-79
2023/07/16 06:27:21;;;;;;;2.60;2.40;;;;;;;20.39;87.93;100256.00;4967024;28;20212;-80
2023/07/16 06:29:48;;;;;;;2.57;2.07;;;;;;;20.31;85.14;100285.63;4966841;28;20225;-80
2023/07/16 06:32:14;;;;;;;2.40;2.20;;;;;;;20.49;86.11;100309.28;4968767;28;20207;-80
2023/07/16 06:34:41;;;;;;;2.70;1.93;;;;;;;20.42;83.00;100359.22;4964101;28;20232;-79
2023/07/16 06:37:07;;;;;;;3.77;2.27;;;;;;;20.56;84.54;100351.25;4965691;28;20205;-79
2023/07/16 06:39:35;;;;;;;4.13;2.63;;;;;;;20.36;80.85;100391.41;4966811;28;20204;-79
2023/07/16 06:42:02;;;;;;;3.13;2.10;;;;;;;20.55;81.46;100412.34;4967062;28;20208;-79
2023/07/16 06:44:28;;;;;;;2.73;1.93;;;;;;;20.43;78.16;100491.69;4960207;28;20201;-80
2023/07/16 06:46:55;;;;;;;2.47;2.27;;;;;;;20.57;79.17;100496.19;4965690;28;20209;-80
2023/07/16 06:49:22;;;;;;;3.77;2.30;;;;;;;20.67;79.20;100498.28;4968570;28;20221;-80
2023/07/16 06:51:48;;;;;;;2.60;2.47;;;;;;;20.69;80.52;100461.91;4963503;28;20268;-79
2023/07/16 06:54:15;;;;;;;2.30;2.10;;;;;;;20.74;80.83;100447.44;4973872;28;20243;-79
2023/07/16 06:56:43;;;;;;;3.57;2.30;;;;;;;20.76;79.31;100477.38;4962131;28;20223;-79
2023/07/16 06:59:09;;;;;;;3.33;2.13;;;;;;;20.76;80.13;100477.38;4968896;28;20223;-79
2023/07/16 07:01:36;;;;;;;3.30;2.20;;;;;;;20.69;78.41;100491.09;4970109;28;20224;-79
2023/07/16 07:04:02;;;;;;;2.57;2.13;;;;;;;20.56;76.29;100528.94;4967844;28;20565;-76
2023/07/16 07:06:29;;;;;;;3.03;1.70;;;;;;;20.63;74.12;100598.41;4952899;28;20213;-77
2023/07/16 07:08:55;;;;;;;2.80;1.70;;;;;;;20.70;72.73;100652.00;4960622;28;20197;-77
2023/07/16 07:11:22;;;;;;;2.50;1.90;;;;;;;20.82;74.87;100622.09;4962581;28;20903;-77
2023/07/16 07:13:50;;;;;;;6.73;2.47;;;;;;;20.72;71.94;100666.00;4963749;28;20231;-76
2023/07/16 07:16:16;;;;;;;2.60;1.57;;;;;;;20.82;72.59;100676.00;4962357;28;20666;-76
2023/07/16 07:18:43;;;;;;;4.43;1.90;;;;;;;20.86;71.18;100712.97;4960824;28;20208;-76
2023/07/16 07:21:10;;;;;;;1.83;1.40;;;;;;;20.92;70.28;100732.03;4959884;28;20231;-76
2023/07/16 07:23:36;;;;;;;2.33;1.70;;;;;;;20.86;69.01;100780.16;4625523;23;10001544;-82
2023/07/16 07:26:03;;;;;;;3.97;2.17;;;;;;;20.89;69.77;100755.25;4960832;28;20318;-83
2023/07/16 07:28:29;;;;;;;2.23;1.80;;;;;;;20.99;70.82;100756.41;4951297;28;20213;-83
2023/07/16 07:30:57;;;;;;;2.93;1.80;;;;;;;21.05;70.72;100734.88;4959200;28;20213;-83
2023/07/16 07:33:24;;;;;;;3.07;1.50;;;;;;;21.00;67.10;100798.81;4954119;28;20243;-83
2023/07/16 07:35:54;;;;;;;2.97;1.60;;;;;;;21.09;66.35;100839.91;4957362;28;20205;-83
2023/07/16 07:38:20;;;;;;;2.63;1.40;;;;;;;21.14;65.39;100908.69;4956366;28;20209;-83
2023/07/16 07:40:47;;;;;;;2.73;1.80;;;;;;;21.16;65.33;100917.41;4957430;28;20213;-84
2023/07/16 07:43:13;;;;;;;4.00;1.40;;;;;;;21.18;64.63;100920.84;4955717;28;20221;-84
2023/07/16 07:45:40;;;;;;;2.80;1.90;;;;;;;21.12;58.68;101024.72;4956628;28;20208;-83
2023/07/16 07:48:07;;;;;;;2.00;1.53;;;;;;;20.98;56.62;101147.53;4956690;28;20236;-84
2023/07/16 07:50:34;;;;;;;4.50;2.07;;;;;;;21.12;59.85;101147.69;4955482;28;20201;-83
2023/07/16 07:53:00;;;;;;;3.80;1.80;;;;;;;20.99;57.67;101191.72;4954827;28;20229;-84
2023/07/16 07:55:27;;;;;;;3.40;1.87;;;;;;;21.03;57.42;101175.56;4956524;28;20209;-85
2023/07/16 07:57:53;;;;;;;2.13;1.90;;;;;;;21.14;57.55;101188.28;4956268;28;20207;-86
2023/07/16 08:00:21;;;;;;;4.17;1.80;;;;;;;21.18;56.21;101205.78;4956696;28;20215;-83
2023/07/16 08:02:47;;;;;;;3.07;1.80;;;;;;;21.14;55.22;101236.09;4956667;28;20228;-83
2023/07/16 08:05:15;;;;;;;5.70;2.30;;;;;;;21.21;57.18;101216.25;4955711;28;20215;-83
2023/07/16 08:07:41;;;;;;;3.10;1.80;;;;;;;21.35;57.45;101204.06;4956303;28;20305;-83
2023/07/16 08:10:08;;;;;;;2.57;1.73;;;;;;;21.34;56.68;101187.25;4957001;28;20212;-83
2023/07/16 08:12:35;;;;;;;2.93;2.03;;;;;;;21.43;57.44;101159.41;4957794;28;20224;-81
2023/07/16 08:15:01;;;;;;;3.10;2.00;;;;;;;21.38;55.61;101202.09;4957367;28;20236;-83
2023/07/16 08:17:28;;;;;;;4.03;2.10;;;;;;;21.48;56.17;101221.09;4959246;28;20209;-85
2023/07/16 08:19:54;;;;;;;2.63;2.07;;;;;;;21.52;55.07;101227.97;4958466;28;20216;-84
2023/07/16 08:22:23;;;;;;;2.73;1.87;;;;;;;21.48;54.22;101255.63;4956965;28;20244;-85
2023/07/16 08:24:51;;;;;;;2.43;1.80;;;;;;;21.51;54.68;101268.78;4956381;28;20260;-82
2023/07/16 08:27:18;;;;;;;2.30;1.90;;;;;;;21.60;53.80;101286.03;4956040;28;20234;-82
2023/07/16 08:29:45;;;;;;;2.00;1.70;;;;;;;21.53;53.41;101303.25;4960015;28;20233;-82
2023/07/16 08:32:12;;;;;;;3.93;2.13;;;;;;;21.63;54.33;101293.84;4942576;28;20225;-82
2023/07/16 08:34:38;;;;;;;2.80;1.70;;;;;;;21.73;54.17;101271.19;4937759;29;20230;-83
2023/07/16 08:37:06;;;;;;;2.43;1.80;;;;;;;21.79;51.83;101310.72;4951771;28;20201;-82
2023/07/16 08:39:34;;;;;;;3.83;1.67;;;;;;;21.88;51.20;101349.22;4955421;28;20209;-83
2023/07/16 08:42:02;;;;;;;2.70;2.00;;;;;;;21.93;52.78;101328.59;4954930;28;20205;-84
2023/07/16 08:44:30;;;;;;;2.63;1.90;;;;;;;21.85;51.98;101380.47;4954743;28;20208;-83
2023/07/16 08:46:57;;;;;;;2.63;1.77;;;;;;;21.87;52.62;101375.94;4955210;28;20292;-83
2023/07/16 08:49:24;;;;;;;4.60;1.80;;;;;;;21.83;50.34;101387.66;4955108;28;20217;-84
2023/07/16 08:51:51;;;;;;;4.30;1.90;;;;;;;21.98;53.10;101357.59;4954362;28;20659;-83
2023/07/16 08:54:19;;;;;;;3.57;2.20;;;;;;;22.00;50.94;101345.06;4955793;28;20228;-82
2023/07/16 08:56:48;;;;;;;3.87;2.07;;;;;;;22.06;52.38;101334.16;4959919;28;20233;-84
2023/07/16 08:59:18;;;;;;;3.13;2.27;;;;;;;22.14;53.27;101307.13;4957484;28;20224;-83
2023/07/16 09:01:47;;;;;;;3.30;2.20;;;;;;;22.10;51.69;101321.53;4956780;28;20205;-83
2023/07/16 09:04:13;;;;;;;3.03;1.70;;;;;;;22.14;51.32;101347.91;4959115;28;20220;-84
2023/07/16 09:06:40;;;;;;;5.07;2.40;;;;;;;22.29;52.39;101330.28;4955255;28;20201;-82
2023/07/16 09:09:07;;;;;;;2.00;1.80;;;;;;;22.28;49.83;101367.59;4956634;28;20212;-83
2023/07/16 09:11:34;;;;;;;4.27;1.77;;;;;;;22.25;49.34;101411.19;4957881;28;20209;-83
2023/07/16 09:14:03;;;;;;;4.60;2.40;;;;;;;22.35;50.31;101414.22;4958466;28;20280;-82
2023/07/16 09:16:34;;;;;;;1.93;1.83;;;;;;;22.42;49.65;101447.56;4958653;28;20287;-82
2023/07/16 09:19:07;;;;;;;4.10;2.00;;;;;;;22.50;51.76;101389.47;4957512;28;20204;-83
2023/07/16 09:21:34;;;;;;;4.00;1.90;;;;;;;22.50;48.70;101410.75;4958511;28;20222;-82
2023/07/16 09:24:01;;;;;;;4.57;2.17;;;;;;;22.53;48.74;101452.28;4957048;28;20224;-82
2023/07/16 09:26:28;;;;;;;3.87;1.97;;;;;;;22.59;49.48;101436.00;4958297;28;20217;-82
2023/07/16 09:28:54;;;;;;;1.77;1.60;;;;;;;22.59;50.00;101454.63;4958063;28;20205;-83
2023/07/16 09:31:22;;;;;;;2.07;1.70;;;;;;;22.68;49.11;101442.66;4958049;28;20223;-83
2023/07/16 09:33:49;;;;;;;2.03;1.83;;;;;;;22.69;49.22;101447.00;4957872;28;20719;-83
2023/07/16 09:36:24;;;;;;;2.80;2.10;;;;;;;22.76;47.53;101451.94;4958544;28;20439;-83
2023/07/16 09:38:51;;;;;;;2.73;1.70;;;;;;;22.93;48.67;101452.81;4956801;28;20263;-82
2023/07/16 09:41:19;;;;;;;2.30;2.00;;;;;;;22.99;47.88;101461.34;4958162;28;20209;-81
2023/07/16 09:43:45;;;;;;;3.90;2.20;;;;;;;23.00;47.20;101500.31;4957712;28;20233;-82
2023/07/16 09:46:11;;;;;;;5.33;1.73;;;;;;;22.92;46.57;101525.66;4958092;28;20615;-82
2023/07/16 09:48:39;;;;;;;1.67;1.57;;;;;;;22.84;47.31;101538.53;4958988;28;20213;-83
2023/07/16 09:51:08;;;;;;;2.57;1.77;;;;;;;22.95;48.90;101507.72;4958455;28;20223;-83
2023/07/16 09:53:37;;;;;;;3.43;1.77;;;;;;;22.95;47.49;101496.19;4957431;28;20231;-82
2023/07/16 09:56:05;;;;;;;2.07;1.60;;;;;;;22.90;47.02;101503.59;4958399;28;20609;-82
2023/07/16 09:58:32;;;;;;;2.10;1.77;;;;;;;22.76;46.36;101537.13;4957583;28;20236;-82
2023/07/16 10:01:00;;;;;;;2.80;1.60;;;;;;;22.84;46.22;101555.34;4957756;28;20196;-83
2023/07/16 10:03:27;;;;;;;2.37;1.83;;;;;;;22.93;47.02;101551.31;4957151;28;20228;-83
2023/07/16 10:06:06;;;;;;;2.20;1.57;;;;;;;23.06;47.51;101540.94;4957649;28;20208;-84
2023/07/16 10:08:35;;;;;;;2.63;2.43;;;;;;;23.20;48.48;101503.75;4960647;28;20234;-83
2023/07/16 10:11:01;;;;;;;2.37;1.90;;;;;;;23.29;46.86;101499.69;4957912;28;20618;-83
2023/07/16 10:13:28;;;;;;;3.97;1.93;;;;;;;23.28;47.71;101525.50;4957705;28;20229;-82
2023/07/16 10:15:56;;;;;;;2.27;1.67;;;;;;;22.96;45.85;101551.19;4958841;28;20233;-84
2023/07/16 10:18:30;;;;;;;2.73;1.77;;;;;;;23.16;47.40;101536.81;4959936;28;20590;-84
2023/07/16 10:21:03;;;;;;;2.60;1.90;;;;;;;23.20;46.78;101559.69;4959154;28;20202;-83
2023/07/16 10:23:39;;;;;;;1.80;1.60;;;;;;;23.13;45.40;101579.59;4958057;28;20236;-83
2023/07/16 10:26:06;;;;;;;1.83;1.73;;;;;;;22.95;44.81;101602.69;4959292;28;20204;-82
2023/07/16 10:28:33;;;;;;;1.80;1.67;;;;;;;23.03;44.65;101621.84;4961113;28;20589;-83
2023/07/16 10:31:00;;;;;;;2.13;1.87;;;;;;;23.19;45.43;101619.22;4964670;28;20204;-82
2023/07/16 10:33:27;;;;;;;2.50;1.60;;;;;;;23.29;44.71;101624.91;4947381;28;20298;-82
2023/07/16 10:35:53;;;;;;;3.20;1.90;;;;;;;23.40;45.18;101606.56;4937823;29;20229;-80
2023/07/16 10:38:21;;;;;;;3.30;2.10;;;;;;;23.45;44.60;101611.63;4939478;29;20579;-83
2023/07/16 10:40:47;;;;;;;2.90;2.33;;;;;;;23.39;44.29;101642.16;4941112;29;20217;-83
2023/07/16 10:43:14;;;;;;;2.87;2.10;;;;;;;23.38;43.97;101646.59;4943044;29;20213;-83
2023/07/16 10:45:42;;;;;;;2.80;2.00;;;;;;;23.43;44.26;101657.03;4955138;29;20202;-84
2023/07/16 10:48:08;;;;;;;7.93;2.43;;;;;;;23.58;45.11;101628.69;4947176;29;20228;-82
2023/07/16 10:50:36;;;;;;;3.37;1.83;;;;;;;23.46;43.69;101670.19;4942669;29;20596;-81
2023/07/16 10:53:03;;;;;;;2.53;2.17;;;;;;;23.43;44.32;101651.72;4946133;29;20226;-79
2023/07/16 10:55:37;;;;;;;2.70;1.93;;;;;;;23.39;45.05;101656.34;4958612;28;20236;-81
2023/07/16 10:58:05;;;;;;;2.77;2.30;;;;;;;23.38;46.32;101625.28;4954934;28;20242;-82
2023/07/16 11:00:31;;;;;;;2.80;2.23;;;;;;;23.37;44.39;101634.25;4960495;28;20205;-79
2023/07/16 11:02:58;;;;;;;6.63;2.27;;;;;;;23.44;44.31;101634.75;4966174;28;20239;-82
2023/07/16 11:05:24;;;;;;;2.40;2.20;;;;;;;23.44;44.31;101655.22;4965341;28;20212;-82
2023/07/16 11:07:51;;;;;;;2.60;2.40;;;;;;;23.61;44.35;101660.53;4961077;28;20216;-81
2023/07/16 11:10:18;;;;;;;2.63;2.30;;;;;;;23.72;44.40;101650.09;4958377;28;20213;-81
2023/07/16 11:12:51;;;;;;;2.37;2.10;;;;;;;23.48;43.09;101688.78;4958793;28;20484;-79
2023/07/16 11:15:18;;;;;;;3.17;2.37;;;;;;;23.34;42.82;101679.69;4956964;28;20358;-81
2023/07/16 11:17:49;;;;;;;2.50;2.30;;;;;;;23.55;42.44;101698.16;4964688;28;20216;-81
2023/07/16 11:20:16;;;;;;;2.60;2.13;;;;;;;23.68;42.39;101725.03;4960891;28;20201;-82
2023/07/16 11:22:42;;;;;;;2.57;1.90;;;;;;;23.82;42.92;101717.16;4963959;28;20237;-82
2023/07/16 11:25:12;;;;;;;2.43;2.23;;;;;;;24.10;44.19;101695.19;4958452;28;20205;-83
2023/07/16 11:27:42;;;;;;;2.97;2.17;;;;;;;24.19;43.01;101701.81;4956868;28;20213;-83